Time;durP1;ratioP1;P1;durP2;ratioP2;P2;SDS_P1;SDS_P2;PMS_P1;PMS_P2;Temp;Humidity;BMP_temperature;BMP_pressure;BME280_temperature;BME280_humidity;BME280_pressure;Samples;Min_cycle;Max_cycle;Signal;HPM_P1;HPM_P2
2023/02/12 00:05:32;;;;;;;5.05;2.72;;;;;;;;;;21112418;28;20113;-73
2023/02/12 00:15:37;;;;;;;5.50;3.05;;;;;;;;;;21101175;28;20115;-72
2023/02/12 00:25:40;;;;;;;5.15;2.80;;;;;;;;;;21092313;28;20052;-71
2023/02/12 00:36:02;;;;;;;6.63;3.13;;;;;;;;;;21091374;28;20051;-68
2023/02/12 00:46:24;;;;;;;11.43;3.70;;;;;;;;;;21089286;28;20047;-71
2023/02/12 00:56:45;;;;;;;6.10;3.13;;;;;;;;;;21087830;28;20453;-70
2023/02/12 01:07:07;;;;;;;7.93;3.65;;;;;;;;;;21088603;28;20508;-71
2023/02/12 01:17:19;;;;;;;6.18;3.40;;;;;;;;;;21086438;28;20135;-64
2023/02/12 01:27:23;;;;;;;4.43;2.70;;;;;;;;;;21086491;28;20086;-72
2023/02/12 01:37:26;;;;;;;7.68;2.85;;;;;;;;;;21088604;28;20054;-70
2023/02/12 01:47:29;;;;;;;7.70;3.30;;;;;;;;;;21084343;28;20044;-66
2023/02/12 01:57:33;;;;;;;6.68;3.10;;;;;;;;;;21084376;28;20458;-64
2023/02/12 02:07:36;;;;;;;7.18;3.28;;;;;;;;;;21083420;28;20047;-61
2023/02/12 02:17:55;;;;;;;8.15;3.40;;;;;;;;;;21083307;28;20500;-68
2023/02/12 02:27:59;;;;;;;5.72;3.08;;;;;;;;;;21082392;28;20504;-69
2023/02/12 02:38:05;;;;;;;6.95;3.22;;;;;;;;;;21080020;28;20052;-66
2023/02/12 02:48:15;;;;;;;8.88;4.10;;;;;;;;;;21080916;28;20044;-73
2023/02/12 02:58:26;;;;;;;7.78;3.85;;;;;;;;;;21079054;28;20135;-71
2023/02/12 03:08:39;;;;;;;5.90;3.78;;;;;;;;;;21078613;28;20069;-71
2023/02/12 03:19:15;;;;;;;7.78;3.47;;;;;;;;;;21085754;28;20048;-69
2023/02/12 03:29:17;;;;;;;6.38;3.33;;;;;;;;;;21095075;28;20051;-72
2023/02/12 03:39:39;;;;;;;7.93;3.15;;;;;;;;;;21093788;28;20151;-67
2023/02/12 03:49:47;;;;;;;4.38;2.30;;;;;;;;;;21093286;28;20051;-72
2023/02/12 03:59:49;;;;;;;4.93;2.65;;;;;;;;;;21092355;28;20048;-68
2023/02/12 04:09:51;;;;;;;5.88;2.50;;;;;;;;;;21093235;28;20052;-72
2023/02/12 04:19:52;;;;;;;4.57;2.45;;;;;;;;;;21092592;28;20055;-73
2023/02/12 04:30:02;;;;;;;4.72;2.55;;;;;;;;;;21091454;28;20498;-71
2023/02/12 04:40:06;;;;;;;6.15;2.65;;;;;;;;;;21090050;28;20151;-70
2023/02/12 04:50:08;;;;;;;5.85;2.60;;;;;;;;;;21089121;28;20056;-66
2023/02/12 05:00:11;;;;;;;5.18;3.00;;;;;;;;;;21089226;28;20150;-71
2023/02/12 05:10:13;;;;;;;6.28;2.80;;;;;;;;;;21088914;28;20048;-70
2023/02/12 05:20:15;;;;;;;6.10;2.40;;;;;;;;;;21086776;28;20055;-62
2023/02/12 05:30:17;;;;;;;6.85;2.10;;;;;;;;;;21087330;28;20404;-66
2023/02/12 05:40:19;;;;;;;6.45;2.83;;;;;;;;;;21086759;28;20052;-59
2023/02/12 05:50:20;;;;;;;2.90;2.10;;;;;;;;;;21089339;28;20113;-68
2023/02/12 06:00:22;;;;;;;6.35;2.20;;;;;;;;;;21067142;28;20101;-69
2023/02/12 06:10:24;;;;;;;7.95;2.50;;;;;;;;;;21084297;28;20110;-71
2023/02/12 06:20:26;;;;;;;4.60;2.13;;;;;;;;;;21081789;28;20044;-71
2023/02/12 06:30:27;;;;;;;4.90;2.38;;;;;;;;;;21082646;28;20044;-69
2023/02/12 06:40:29;;;;;;;4.68;2.20;;;;;;;;;;21083721;28;20490;-72
2023/02/12 06:50:31;;;;;;;4.07;2.20;;;;;;;;;;21080987;28;20072;-66
2023/02/12 07:00:33;;;;;;;3.78;2.20;;;;;;;;;;21080452;28;20044;-68
2023/02/12 07:10:36;;;;;;;4.90;2.53;;;;;;;;;;21062195;28;20401;-71
2023/02/12 07:20:38;;;;;;;6.50;2.40;;;;;;;;;;21077574;28;20051;-71
2023/02/12 07:30:39;;;;;;;4.88;2.17;;;;;;;;;;21078297;28;20048;-73
2023/02/12 07:40:41;;;;;;;8.18;2.10;;;;;;;;;;21077556;28;20160;-66
2023/02/12 07:50:44;;;;;;;6.07;2.60;;;;;;;;;;21077914;28;20058;-68
2023/02/12 08:00:45;;;;;;;4.88;2.13;;;;;;;;;;21077100;28;20059;-67
2023/02/12 08:10:47;;;;;;;8.10;2.67;;;;;;;;;;21092257;28;20044;-68
2023/02/12 08:20:49;;;;;;;4.78;2.63;;;;;;;;;;21091464;28;20051;-72
2023/02/12 08:30:50;;;;;;;4.43;2.22;;;;;;;;;;21073158;28;20070;-63
2023/02/12 08:40:52;;;;;;;3.33;2.10;;;;;;;;;;21090397;28;20099;-66
2023/02/12 08:50:54;;;;;;;6.97;2.75;;;;;;;;;;21090316;28;20048;-66
2023/02/12 09:00:56;;;;;;;4.68;2.58;;;;;;;;;;21089458;28;20052;-70
2023/02/12 09:10:58;;;;;;;5.07;2.25;;;;;;;;;;21090147;28;20052;-71
2023/02/12 09:21:01;;;;;;;5.18;2.03;;;;;;;;;;21088760;28;20052;-71
2023/02/12 09:31:06;;;;;;;3.95;2.03;;;;;;;;;;21086917;28;20478;-67
2023/02/12 09:41:26;;;;;;;4.25;2.58;;;;;;;;;;21084811;28;20073;-71
2023/02/12 09:51:30;;;;;;;6.20;2.33;;;;;;;;;;21083446;28;20059;-68
2023/02/12 10:01:34;;;;;;;4.82;2.40;;;;;;;;;;21082394;28;20052;-67
2023/02/12 10:11:55;;;;;;;3.72;2.20;;;;;;;;;;21080977;28;20044;-71
2023/02/12 10:22:04;;;;;;;5.97;2.97;;;;;;;;;;21081687;28;20047;-70
2023/02/12 10:32:11;;;;;;;4.70;2.40;;;;;;;;;;21079860;28;20051;-62
2023/02/12 10:42:16;;;;;;;4.90;2.35;;;;;;;;;;21080359;28;20044;-68
2023/02/12 10:52:29;;;;;;;4.72;2.60;;;;;;;;;;21079638;28;20059;-65
2023/02/12 11:02:33;;;;;;;8.32;2.40;;;;;;;;;;21078963;28;20079;-65
2023/02/12 11:12:46;;;;;;;5.13;2.42;;;;;;;;;;21080426;28;20063;-69
2023/02/12 11:22:57;;;;;;;5.90;2.38;;;;;;;;;;21082389;28;20098;-66
2023/02/12 11:33:35;;;;;;;4.85;2.30;;;;;;;;;;21079072;28;20397;-61
2023/02/12 11:43:38;;;;;;;4.72;2.45;;;;;;;;;;20728835;28;20414;-64
2023/02/12 11:53:41;;;;;;;5.47;2.63;;;;;;;;;;20755738;28;20050;-63
2023/02/12 12:03:43;;;;;;;5.45;2.38;;;;;;;;;;20752823;28;20058;-63
2023/02/12 12:13:48;;;;;;;3.80;2.55;;;;;;;;;;20964314;28;20055;-62
2023/02/12 12:24:00;;;;;;;4.88;2.30;;;;;;;;;;21092384;28;20413;-71
2023/02/12 12:34:08;;;;;;;7.55;2.45;;;;;;;;;;21090189;28;20054;-61
2023/02/12 12:44:23;;;;;;;5.00;2.05;;;;;;;;;;21088918;28;20054;-71
2023/02/12 12:54:44;;;;;;;5.40;2.30;;;;;;;;;;21088239;28;20129;-72
2023/02/12 13:04:52;;;;;;;4.40;1.90;;;;;;;;;;21088996;28;20554;-70
2023/02/12 13:15:07;;;;;;;6.30;2.20;;;;;;;;;;21088189;28;20048;-65
2023/02/12 13:25:19;;;;;;;4.10;2.05;;;;;;;;;;21087377;28;20482;-71
2023/02/12 13:35:23;;;;;;;7.30;2.50;;;;;;;;;;21084722;28;20044;-72
2023/02/12 13:45:49;;;;;;;4.20;1.90;;;;;;;;;;21075698;28;20052;-66
2023/02/12 13:56:01;;;;;;;4.90;1.60;;;;;;;;;;20663546;28;20170;-71
2023/02/12 14:06:16;;;;;;;3.17;1.73;;;;;;;;;;20662546;28;20125;-71
2023/02/12 14:16:38;;;;;;;7.32;2.20;;;;;;;;;;20661858;28;20105;-68
2023/02/12 14:26:40;;;;;;;4.82;1.50;;;;;;;;;;20772771;28;20123;-62
2023/02/12 14:36:43;;;;;;;7.05;2.08;;;;;;;;;;21084686;28;20047;-71
2023/02/12 14:46:50;;;;;;;5.63;1.63;;;;;;;;;;21165172;28;20051;-71
2023/02/12 14:56:55;;;;;;;8.27;1.38;;;;;;;;;;21163902;28;20178;-64
2023/02/12 15:07:07;;;;;;;6.13;1.83;;;;;;;;;;21164075;28;20079;-61
2023/02/12 15:17:21;;;;;;;3.38;1.60;;;;;;;;;;21162844;28;20062;-63
2023/02/12 15:27:24;;;;;;;4.40;1.58;;;;;;;;;;21164907;28;20141;-62
2023/02/12 15:37:28;;;;;;;8.48;2.22;;;;;;;;;;21161172;28;20082;-65
2023/02/12 15:47:30;;;;;;;6.00;2.47;;;;;;;;;;21162525;28;20115;-68
2023/02/12 15:57:32;;;;;;;8.90;1.75;;;;;;;;;;21162342;28;20051;-62
2023/02/12 16:07:36;;;;;;;7.15;1.73;;;;;;;;;;21162167;28;20122;-62
2023/02/12 16:17:45;;;;;;;5.57;1.88;;;;;;;;;;21161361;28;20482;-69
2023/02/12 16:27:57;;;;;;;10.18;2.13;;;;;;;;;;21168933;28;20131;-62
2023/02/12 16:38:17;;;;;;;3.05;1.25;;;;;;;;;;21175657;28;20138;-68
2023/02/12 16:48:23;;;;;;;6.18;2.25;;;;;;;;;;21175373;28;20051;-65
2023/02/12 16:58:27;;;;;;;6.32;2.08;;;;;;;;;;21173240;28;20055;-68
2023/02/12 17:08:29;;;;;;;12.30;1.70;;;;;;;;;;21173597;28;20477;-69
2023/02/12 17:18:31;;;;;;;9.05;1.92;;;;;;;;;;21171422;28;20130;-69
2023/02/12 17:28:33;;;;;;;6.25;1.63;;;;;;;;;;21172000;28;20529;-72
2023/02/12 17:38:36;;;;;;;7.05;2.08;;;;;;;;;;21151260;28;20126;-63
2023/02/12 17:48:39;;;;;;;6.65;1.95;;;;;;;;;;21084355;28;20108;-62
2023/02/12 17:58:42;;;;;;;9.30;1.75;;;;;;;;;;21085060;28;20048;-61
2023/02/12 18:08:44;;;;;;;15.32;3.08;;;;;;;;;;21082792;28;20090;-62
2023/02/12 18:18:46;;;;;;;11.55;2.13;;;;;;;;;;21082818;28;20051;-73
2023/02/12 18:28:50;;;;;;;9.30;3.13;;;;;;;;;;21082400;28;20150;-70
2023/02/12 18:38:52;;;;;;;11.80;4.38;;;;;;;;;;21099455;28;20052;-67
2023/02/12 18:48:54;;;;;;;11.15;2.95;;;;;;;;;;21165147;28;20047;-69
2023/02/12 18:58:57;;;;;;;10.88;3.08;;;;;;;;;;21163212;28;20052;-68
2023/02/12 19:09:01;;;;;;;12.95;3.58;;;;;;;;;;21163086;28;20044;-69
2023/02/12 19:19:03;;;;;;;11.25;3.10;;;;;;;;;;21145554;28;20051;-62
2023/02/12 19:29:05;;;;;;;8.18;2.78;;;;;;;;;;21163228;28;20353;-64
2023/02/12 19:39:08;;;;;;;10.95;3.35;;;;;;;;;;21138840;28;20052;-72
2023/02/12 19:49:21;;;;;;;14.68;3.17;;;;;;;;;;21078370;28;20130;-72
2023/02/12 19:59:24;;;;;;;16.67;3.00;;;;;;;;;;21080443;28;20486;-62
2023/02/12 20:09:25;;;;;;;20.02;3.53;;;;;;;;;;21092690;28;20055;-62
2023/02/12 20:19:29;;;;;;;10.35;3.28;;;;;;;;;;21092095;28;20048;-68
2023/02/12 20:29:31;;;;;;;16.63;3.17;;;;;;;;;;21090450;28;20105;-72
2023/02/12 20:39:34;;;;;;;5.97;2.83;;;;;;;;;;21072311;28;20059;-71
2023/02/12 20:49:37;;;;;;;5.90;2.88;;;;;;;;;;21090594;28;20501;-72
2023/02/12 20:59:39;;;;;;;14.52;4.32;;;;;;;;;;21088979;28;20052;-70
2023/02/12 21:09:43;;;;;;;14.00;4.28;;;;;;;;;;21090383;28;20044;-65
2023/02/12 21:19:45;;;;;;;13.23;5.32;;;;;;;;;;21087470;28;20059;-68
2023/02/12 21:29:47;;;;;;;14.30;4.85;;;;;;;;;;21086062;28;20040;-72
2023/02/12 21:39:49;;;;;;;15.23;3.78;;;;;;;;;;21113195;28;20047;-64
2023/02/12 21:49:51;;;;;;;14.38;4.88;;;;;;;;;;21169608;28;20048;-70
2023/02/12 21:59:53;;;;;;;16.27;6.22;;;;;;;;;;21170293;28;20058;-70
2023/02/12 22:09:55;;;;;;;11.65;3.80;;;;;;;;;;21169527;28;20122;-73
2023/02/12 22:19:58;;;;;;;9.85;3.25;;;;;;;;;;21169217;28;20047;-64
2023/02/12 22:30:01;;;;;;;13.52;3.30;;;;;;;;;;21167307;28;20457;-68
2023/02/12 22:40:05;;;;;;;6.10;2.67;;;;;;;;;;21166121;28;20083;-67
2023/02/12 22:50:07;;;;;;;9.40;2.90;;;;;;;;;;21165987;28;20047;-71
2023/02/12 23:00:10;;;;;;;10.63;2.53;;;;;;;;;;21165571;28;20481;-67
2023/02/12 23:10:12;;;;;;;11.48;2.55;;;;;;;;;;21167000;28;20456;-67
2023/02/12 23:20:14;;;;;;;8.88;2.72;;;;;;;;;;21163288;28;20058;-71
2023/02/12 23:30:18;;;;;;;13.73;3.08;;;;;;;;;;21164807;28;20062;-65
2023/02/12 23:40:20;;;;;;;8.02;2.40;;;;;;;;;;21144864;28;20052;-68
2023/02/12 23:50:23;;;;;;;10.52;2.88;;;;;;;;;;21094889;28;20052;-69
